Latest Coastal Weather Observations for Rhyll

IDV60701

Issued at 9:01 pm EST Friday 6 May 2016 (issued every 10 minutes, with the page automatically refreshed every 10 minutes)

About coastal observations | Map of coastal stations | Coastal observations for VIC | Marine services | Other Formats
Station Details ID: 086373 Name: RHYLL Lat: -38.46 Lon: 145.31 Height: 13.4 m
Data from the previous 72 hours. | See also: Recent months at Rhyll
Date/Time
EST
Temp

°C
Wind Pressure Rain
since 9am
mm
Weather Cloud Vis
km
Sea
Height
m
Swell
Dir
 
Speed
knots
Gust
knots
hPa Trend Height
m
Period
s
Dir
06/09:00pm 14.3 SSE 4 5 1017.1 - 0.0 - - - - - - -
06/08:30pm 14.8 SSE 3 5 1017.3 - 0.0 - - - - - - -
06/08:00pm 14.6 S 3 5 1017.0 - 0.0 - - - - - - -
06/07:30pm 14.7 SSE 4 5 1016.9 - 0.0 - - - - - - -
06/07:00pm 14.9 S 3 5 1016.6 - 0.0 - - - - - - -
06/06:30pm 14.9 S 3 3 1016.2 - 0.0 - - - - - - -
06/06:00pm 15.1 S 3 4 1015.6 - 0.0 - - - - - - -
06/05:30pm 15.5 SSE 4 5 1015.1 - 0.0 - - - - - - -
06/05:00pm 16.6 S 3 4 1014.8 - 0.0 - - - - - - -
06/04:30pm 17.6 S 3 5 1014.6 - 0.0 - - - - - - -
06/04:00pm 17.7 SSW 5 9 1014.4 - 0.0 - - - - - - -
06/03:30pm 18.5 SSW 5 9 1014.0 - 0.0 - - - - - - -
06/03:00pm 18.8 SSW 8 12 1013.8 - 0.0 - - - - - - -
06/02:30pm 19.8 SSW 7 13 1013.7 - 0.0 - - - - - - -
06/02:00pm 20.5 SW 6 10 1013.7 - 0.0 - - - - - - -
06/01:30pm 21.2 WSW 4 7 1013.9 - 0.0 - - - - - - -
06/01:00pm 21.6 WNW 4 8 1014.0 - 0.0 - - - - - - -
06/12:30pm 21.5 WNW 5 9 1014.3 - 0.0 - - - - - - -
06/12:00pm 21.2 WNW 5 10 1014.6 - 0.0 - - - - - - -
06/11:30am 21.2 NW 5 10 1014.9 - 0.0 - - - - - - -
06/11:00am 20.7 NW 4 7 1014.8 - 0.0 - - - - - - -
06/10:30am 19.4 NNW 10 13 1014.6 - 0.0 - - - - - - -
06/10:00am 19.2 NW 6 11 1014.6 - 0.0 - - - - - - -
06/09:30am 18.0 NNW 14 18 1014.2 - 0.0 - - - - - - -
06/09:00am 17.6 NNW 11 17 1014.4 - 0.0 - - - - - - -
06/08:30am 17.0 NNW 13 18 1014.4 - 0.0 - - - - - - -
06/08:00am 16.5 NNW 11 15 1014.0 - 0.0 - - - - - - -
06/07:30am 16.3 NNW 12 15 1013.7 - 0.0 - - - - - - -
06/07:00am 16.1 NNW 12 16 1013.4 - 0.0 - - - - - - -
06/06:30am 16.1 NNW 12 16 1013.1 - 0.0 - - - - - - -
06/06:00am 15.8 NNW 9 14 1013.0 - 0.0 - - - - - - -
06/05:30am 16.0 N 10 13 1012.8 - 0.0 - - - - - - -
06/05:00am 16.1 N 9 13 1012.6 - 0.0 - - - - - - -
06/04:30am 16.1 N 11 15 1012.4 - 0.0 - - - - - - -
06/04:00am 16.2 N 14 17 1012.3 - 0.0 - - - - - - -
06/03:30am 16.5 N 16 21 1012.4 - 0.0 - - - - - - -
06/03:00am 16.6 N 17 21 1012.3 - 0.0 - - - - - - -
06/02:30am 16.8 N 17 21 1012.5 - 0.0 - - - - - - -
06/02:00am 16.9 NNW 19 23 1012.4 - 0.0 - - - - - - -
06/01:30am 17.0 NNW 19 23 1012.3 - 0.0 - - - - - - -
06/01:00am 17.1 NNW 19 24 1012.4 - 0.0 - - - - - - -
06/12:30am 17.4 NNW 20 24 1012.3 - 0.0 - - - - - - -
06/12:00am 17.4 NNW 19 24 1012.4 - 0.0 - - - - - - -
 
Date/Time
EST
Temp

°C
Wind Pressure Rain
since 9am
mm
Weather Cloud Vis
km
Sea
Height
m
Swell
Dir
 
Speed
knots
Gust
knots
hPa Trend Height
m
Period
s
Dir
05/11:30pm 17.2 NNW 18 21 1012.4 - 0.0 - - - - - - -
05/11:00pm 17.2 NNW 18 22 1012.5 - 0.0 - - - - - - -
05/10:30pm 17.3 NNW 17 23 1012.7 - 0.0 - - - - - - -
05/10:00pm 17.2 NNW 17 21 1012.8 - 0.0 - - - - - - -
05/09:30pm 17.4 N 16 19 1012.9 - 0.0 - - - - - - -
05/09:00pm 16.6 N 7 12 1013.0 - 0.0 - - - - - - -
05/08:30pm 16.3 NNE 6 9 1012.9 - 0.0 - - - - - - -
05/08:00pm 16.6 NNE 8 13 1012.9 - 0.0 - - - - - - -
05/07:30pm 17.0 N 8 13 1013.0 - 0.0 - - - - - - -
05/07:00pm 17.2 N 12 16 1012.8 - 0.0 - - - - - - -
05/06:30pm 17.6 N 16 19 1012.4 - 0.0 - - - - - - -
05/06:00pm 18.1 N 19 24 1012.1 - 0.0 - - - - - - -
05/05:30pm 18.3 NNW 20 24 1011.9 - 0.0 - - - - - - -
05/05:00pm 18.3 NNW 21 26 1011.7 - 0.0 - - - - - - -
05/04:30pm 18.8 NNW 21 26 1011.7 - 0.0 - - - - - - -
05/04:00pm 18.8 NNW 20 26 1011.9 - 0.0 - - - - - - -
05/03:30pm 19.0 NNW 22 26 1012.0 - 0.0 - - - - - - -
05/03:00pm 18.8 NNW 21 27 1012.0 - 0.0 - - - - - - -
05/02:30pm 18.7 NNW 18 27 1012.1 - 0.0 - - - - - - -
05/02:00pm 18.9 NNW 18 24 1012.3 - 0.0 - - - - - - -
05/01:30pm 18.6 NNW 20 28 1012.5 - 0.0 - - - - - - -
05/01:04pm 19.0 NNW 17 28 1013.0 - 0.0 - - - - - - -
05/01:00pm 19.2 NNW 16 23 1013.0 - 0.0 - - - - - - -
05/12:30pm 18.0 NNW 17 23 1013.5 - 0.0 - - - - - - -
05/12:00pm 17.4 N 16 19 1014.1 - 0.0 - - - - - - -
05/11:30am 17.1 N 21 27 1014.6 - 0.0 - - - - - - -
05/11:00am 17.3 NNW 26 34 1014.8 - 0.0 - - - - - - -
05/10:30am 17.1 NNW 23 31 1015.2 - 0.0 - - - - - - -
05/10:00am 16.9 NNW 21 27 1015.5 - 0.0 - - - - - - -
05/09:30am 16.7 NNW 17 21 1015.9 - 0.0 - - - - - - -
05/09:00am 15.8 N 14 18 1016.1 - 0.0 - - - - - - -
05/08:30am 14.9 N 14 18 1016.1 - 0.0 - - - - - - -
05/08:00am 14.4 N 15 19 1015.8 - 0.0 - - - - - - -
05/07:30am 14.3 N 19 22 1015.5 - 0.0 - - - - - - -
05/07:00am 14.1 N 17 21 1015.4 - 0.0 - - - - - - -
05/06:30am 14.1 N 15 19 1015.4 - 0.0 - - - - - - -
05/06:00am 14.1 N 15 18 1015.5 - 0.0 - - - - - - -
05/05:30am 13.9 NNW 17 20 1015.3 - 0.0 - - - - - - -
05/05:00am 13.9 N 16 20 1015.1 - 0.0 - - - - - - -
05/04:30am 14.1 N 18 21 1015.0 - 0.0 - - - - - - -
05/04:00am 14.2 N 19 23 1014.9 - 0.0 - - - - - - -
05/03:30am 14.3 N 18 22 1015.1 - 0.0 - - - - - - -
05/03:00am 14.4 N 17 21 1015.3 - 0.0 - - - - - - -
05/02:30am 14.4 N 15 20 1015.6 - 0.0 - - - - - - -
05/02:00am 14.5 N 17 22 1015.4 - 0.0 - - - - - - -
05/01:30am 14.7 N 16 20 1015.5 - 0.0 - - - - - - -
05/01:00am 15.2 NNW 18 22 1015.5 - 0.0 - - - - - - -
05/12:30am 15.1 NNW 17 22 1015.6 - 0.0 - - - - - - -
05/12:00am 15.1 NNW 18 23 1015.7 - 0.0 - - - - - - -
 
Date/Time
EST
Temp

°C
Wind Pressure Rain
since 9am
mm
Weather Cloud Vis
km
Sea
Height
m
Swell
Dir
 
Speed
knots
Gust
knots
hPa Trend Height
m
Period
s
Dir
04/11:30pm 15.1 NNW 19 24 1015.7 - 0.0 - - - - - - -
04/11:00pm 15.1 N 18 24 1015.7 - 0.0 - - - - - - -
04/10:30pm 15.3 NNW 20 24 1015.9 - 0.0 - - - - - - -
04/10:00pm 15.3 NNW 20 25 1015.8 - 0.0 - - - - - - -
04/09:30pm 15.3 NNW 19 24 1015.8 - 0.0 - - - - - - -
04/09:00pm 15.2 NNW 18 23 1015.7 - 0.0 - - - - - - -
04/08:30pm 15.1 NNW 18 23 1015.6 - 0.0 - - - - - - -
04/08:00pm 15.2 N 17 21 1015.5 - 0.0 - - - - - - -
04/07:30pm 15.2 NNW 17 22 1015.4 - 0.0 - - - - - - -
04/07:00pm 15.4 NNW 13 17 1015.1 - 0.0 - - - - - - -
04/06:30pm 15.5 NNW 12 15 1014.7 - 0.0 - - - - - - -
04/06:00pm 15.5 NNW 12 17 1014.5 - 0.0 - - - - - - -
04/05:30pm 15.7 NW 8 12 1014.2 - 0.0 - - - - - - -
04/05:00pm 15.6 NNW 12 18 1014.0 - 0.0 - - - - - - -
04/04:30pm 15.7 NNW 10 16 1013.8 - 0.0 - - - - - - -
04/04:00pm 15.8 NW 8 16 1013.8 - 0.0 - - - - - - -
04/03:30pm 15.8 NW 8 14 1013.9 - 0.0 - - - - - - -
04/03:00pm 16.6 NW 8 15 1013.8 - 0.0 - - - - - - -
04/02:30pm 16.4 NW 8 15 1013.7 - 0.0 - - - - - - -
04/02:00pm 16.4 NW 8 14 1013.8 - 0.0 - - - - - - -
04/01:30pm 16.3 NW 7 12 1013.7 - 0.0 - - - - - - -
04/01:00pm 16.1 NW 7 11 1013.9 - 0.0 - - - - - - -
04/12:30pm 15.4 WNW 6 10 1014.2 - 0.0 - - - - - - -
04/12:00pm 15.0 WNW 5 10 1014.6 - 0.0 - - - - - - -
04/11:30am 15.3 WNW 7 13 1014.6 - 0.0 - - - - - - -
04/11:00am 14.9 NW 6 12 1014.6 - 0.0 - - - - - - -
04/10:30am 14.4 WNW 6 13 1014.9 - 0.0 - - - - - - -
04/10:00am 13.8 WNW 8 14 1014.9 - 0.0 - - - - - - -
04/09:30am 13.7 WNW 6 12 1014.7 - 0.0 - - - - - - -
04/09:00am 13.0 WNW 6 10 1014.5 - 6.2 - - - - - - -
04/08:30am 12.3 WNW 5 12 1014.1 - 6.2 - - - - - - -
04/08:00am 11.9 WNW 5 12 1013.9 - 6.2 - - - - - - -
04/07:30am 11.5 WNW 5 13 1013.5 - 6.2 - - - - - - -
04/07:00am 11.3 WNW 6 13 1012.9 - 6.2 - - - - - - -
04/06:30am 11.3 WNW 7 13 1012.4 - 6.2 - - - - - - -
04/06:00am 11.3 W 7 13 1012.0 - 6.2 - - - - - - -
04/05:30am 11.4 WNW 7 14 1011.8 - 6.2 - - - - - - -
04/05:00am 11.4 WNW 6 13 1011.1 - 6.2 - - - - - - -
04/04:30am 11.4 W 7 15 1010.5 - 6.2 - - - - - - -
04/04:00am 12.0 W 10 19 1010.5 - 6.2 - - - - - - -
04/03:30am 11.9 W 9 18 1009.9 - 6.2 - - - - - - -
04/03:00am 11.8 WNW 9 16 1009.4 - 6.2 - - - - - - -
04/02:30am 12.0 W 7 15 1009.0 - 6.2 - - - - - - -
04/02:00am 12.2 WNW 8 13 1008.9 - 6.2 - - - - - - -
04/01:30am 12.3 WNW 8 15 1008.8 - 6.2 - - - - - - -
04/01:00am 12.3 W 10 18 1008.7 - 6.2 - - - - - - -
04/12:30am 12.5 W 10 20 1008.5 - 6.2 - - - - - - -
04/12:00am 12.8 W 10 19 1008.2 - 6.2 - - - - - - -
 
Date/Time
EST
Temp

°C
Wind Pressure Rain
since 9am
mm
Weather Cloud Vis
km
Sea
Height
m
Swell
Dir
 
Speed
knots
Gust
knots
hPa Trend Height
m
Period
s
Dir
03/11:30pm 13.4 W 10 19 1007.9 - 6.2 - - - - - - -
03/11:00pm 13.4 WNW 8 16 1007.3 - 6.2 - - - - - - -
03/10:30pm 13.2 WNW 6 13 1007.1 - 6.2 - - - - - - -
03/10:00pm 13.4 WNW 8 15 1007.0 - 6.2 - - - - - - -
03/09:30pm 13.4 WNW 7 15 1006.6 - 6.2 - - - - - - -

Other Formats:

Comma delimited format used in spreadsheet applications
http://www.bom.gov.au/fwo/IDV60701/IDV60701.94892.axf

JavaScript Object Notation format (JSON) in row-major order
http://www.bom.gov.au/fwo/IDV60701/IDV60701.94892.json